Hildreth, Nebraska
Current Conditions -  °F | °C
As of 8:55 AM on Sunday 23 Nov 2014 (Local Time) from KHDE Reporting Station
Light Rain Light Rain  
Wind Chill: 31°   Ceiling: 2600
Heat Index: 41°   Visibility: 10mi
Dew Point: 34°   Wind: 23mph
Humidity: 77%   Direction: 360°N
Pressure: 29.62"   Gusts: 39mph
Location:  40.34°N, 99.04°W
Report Text: KHDE 231455Z AUTO 36020G34KT 10SM -RA BKN026 BKN034 OVC046 05/01 A2962 RMK AO2 T00480011
Loading
Personal Weather Stations






























Interactive Weather Map New forecast layout! Learn more

10-Day Weather Forecast

Advertisements
Track Severe Weather on mobile